Time;durP1;ratioP1;P1;durP2;ratioP2;P2;SDS_P1;SDS_P2;PMS_P1;PMS_P2;Temp;Humidity;BMP_temperature;BMP_pressure;BME280_temperature;BME280_humidity;BME280_pressure;Samples;Min_cycle;Max_cycle;Signal;HPM_P1;HPM_P2
2023/01/27 00:01:55;;;;;;;13.07;9.63;;;3.00;99.90;;;;;;4947395;28;20502;-59
2023/01/27 00:04:21;;;;;;;12.82;9.88;;;3.80;99.90;;;;;;4965635;28;20567;-61
2023/01/27 00:06:47;;;;;;;11.70;9.30;;;3.10;99.90;;;;;;4965366;28;20452;-62
2023/01/27 00:09:12;;;;;;;12.43;8.90;;;3.70;99.90;;;;;;4965009;28;20130;-61
2023/01/27 00:14:23;;;;;;;11.13;9.07;;;3.10;99.90;;;;;;4965341;28;20535;-61
2023/01/27 00:16:49;;;;;;;12.88;9.50;;;3.90;99.90;;;;;;4965885;28;20054;-62
2023/01/27 00:19:18;;;;;;;12.18;9.07;;;3.90;99.90;;;;;;4965543;28;20046;-58
2023/01/27 00:24:35;;;;;;;12.13;9.23;;;4.20;99.90;;;;;;4965394;28;20087;-61
2023/01/27 00:27:07;;;;;;;13.27;10.00;;;4.00;99.90;;;;;;4948077;28;20053;-61
2023/01/27 00:29:37;;;;;;;11.27;9.35;;;3.60;99.90;;;;;;4965425;28;20487;-59
2023/01/27 00:34:49;;;;;;;;;;;3.90;99.90;;;;;;4965802;28;20046;-57
2023/01/27 00:37:14;;;;;;;11.07;9.77;;;3.50;99.90;;;;;;4964088;28;19965;-59
2023/01/27 00:39:41;;;;;;;13.25;10.82;;;3.70;99.90;;;;;;4965070;28;20047;-60
2023/01/27 00:42:06;;;;;;;14.45;11.93;;;3.50;99.90;;;;;;4965132;28;20113;-61
2023/01/27 00:44:32;;;;;;;14.40;11.15;;;3.80;99.90;;;;;;4964887;28;20039;-62
2023/01/27 00:46:58;;;;;;;13.80;11.20;;;3.30;99.90;;;;;;4964583;28;20047;-61
2023/01/27 00:49:24;;;;;;;14.27;9.93;;;3.10;99.90;;;;;;4965089;28;20035;-61
2023/01/27 00:51:50;;;;;;;13.57;9.48;;;3.00;99.90;;;;;;4965035;28;20763;-62
2023/01/27 00:54:16;;;;;;;11.77;8.93;;;3.30;99.90;;;;;;4964827;28;20047;-62
2023/01/27 00:56:42;;;;;;;10.57;8.10;;;3.20;99.90;;;;;;4964899;28;20510;-59
2023/01/27 00:59:07;;;;;;;9.00;6.60;;;4.10;99.90;;;;;;4965080;28;20049;-58
2023/01/27 01:01:34;;;;;;;8.55;6.60;;;3.80;99.90;;;;;;4964785;28;20153;-57
2023/01/27 01:04:00;;;;;;;9.55;6.55;;;3.80;99.90;;;;;;4964690;28;20225;-59
2023/01/27 01:06:26;;;;;;;9.82;6.93;;;3.00;99.90;;;;;;4964796;28;20399;-61
2023/01/27 01:08:52;;;;;;;9.10;6.45;;;3.50;99.90;;;;;;4964185;28;20515;-61
2023/01/27 01:11:19;;;;;;;8.00;5.97;;;3.70;99.90;;;;;;4947462;28;20081;-59
2023/01/27 01:13:46;;;;;;;9.00;5.90;;;3.00;99.90;;;;;;4964788;28;20049;-57
2023/01/27 01:16:15;;;;;;;8.10;5.75;;;4.10;99.90;;;;;;4964767;28;20053;-62
2023/01/27 01:18:42;;;;;;;8.48;5.90;;;3.00;99.90;;;;;;4964409;28;20055;-62
2023/01/27 01:21:08;;;;;;;10.38;6.00;;;3.10;99.90;;;;;;4965171;28;20443;-61
2023/01/27 01:23:38;;;;;;;9.07;5.80;;;4.00;99.90;;;;;;4966914;28;20043;-62
2023/01/27 01:26:04;;;;;;;8.27;5.68;;;3.80;99.90;;;;;;4968084;28;20042;-61
2023/01/27 01:28:29;;;;;;;11.27;5.43;;;3.60;99.90;;;;;;4968803;28;20049;-59
2023/01/27 01:30:55;;;;;;;10.40;5.20;;;3.80;99.90;;;;;;4968626;28;20046;-61
2023/01/27 01:33:21;;;;;;;8.60;4.88;;;3.70;99.90;;;;;;4968073;28;20054;-61
2023/01/27 01:35:46;;;;;;;9.43;5.20;;;3.10;99.90;;;;;;4968550;28;20047;-60
2023/01/27 01:38:12;;;;;;;6.60;4.88;;;3.20;99.90;;;;;;4967714;28;20046;-59
2023/01/27 01:40:42;;;;;;;7.78;5.30;;;3.70;99.90;;;;;;4968610;28;20047;-61
2023/01/27 01:43:14;;;;;;;7.80;4.53;;;3.80;99.90;;;;;;4968073;28;20061;-58
2023/01/27 01:46:08;;;;;;;8.15;4.60;;;3.50;99.90;;;;;;4968066;28;20042;-61
2023/01/27 01:48:41;;;;;;;7.00;4.05;;;3.60;99.90;;;;;;4965447;28;20109;-61
2023/01/27 01:51:16;;;;;;;6.70;3.90;;;3.80;99.90;;;;;;4968420;28;20359;-62
2023/01/27 01:54:02;;;;;;;5.97;3.17;;;3.70;99.90;;;;;;4949893;28;20553;-60
2023/01/27 01:56:34;;;;;;;6.60;3.03;;;3.40;99.90;;;;;;4954312;28;20554;-61
2023/01/27 01:59:05;;;;;;;5.82;3.05;;;3.20;99.90;;;;;;4967914;28;20061;-59
2023/01/27 02:01:31;;;;;;;4.95;2.63;;;3.30;99.90;;;;;;4967697;28;20054;-59
2023/01/27 02:04:01;;;;;;;7.45;3.08;;;3.80;99.90;;;;;;4968086;28;20051;-61
2023/01/27 02:06:27;;;;;;;6.65;2.75;;;3.50;99.90;;;;;;4967713;28;20055;-61
2023/01/27 02:08:53;;;;;;;5.68;2.40;;;3.90;99.90;;;;;;4967545;28;20058;-62
2023/01/27 02:11:19;;;;;;;4.40;2.28;;;3.50;99.90;;;;;;4962261;28;20914;-60
2023/01/27 02:13:45;;;;;;;4.90;2.58;;;3.70;99.90;;;;;;4911850;29;20052;-62
2023/01/27 02:16:12;;;;;;;4.28;2.20;;;3.40;99.90;;;;;;4929649;29;20044;-58
2023/01/27 02:18:40;;;;;;;4.75;2.30;;;3.60;99.90;;;;;;4929298;29;20135;-59
2023/01/27 02:21:06;;;;;;;4.75;2.10;;;3.90;99.90;;;;;;4928892;29;20052;-61
2023/01/27 02:23:50;;;;;;;5.60;2.30;;;3.90;99.90;;;;;;4928523;29;20353;-62
2023/01/27 02:26:41;;;;;;;4.07;2.20;;;3.40;99.90;;;;;;4928868;29;20508;-60
2023/01/27 02:29:10;;;;;;;2.88;2.00;;;4.10;99.90;;;;;;4929009;29;20047;-61
2023/01/27 02:31:35;;;;;;;5.10;2.00;;;3.90;99.90;;;;;;4928560;29;20291;-58
2023/01/27 02:34:15;;;;;;;5.32;2.25;;;3.50;99.90;;;;;;4928119;29;20052;-61
2023/01/27 02:36:54;;;;;;;5.03;2.20;;;3.70;99.90;;;;;;4928417;29;20050;-60
2023/01/27 02:39:22;;;;;;;5.32;2.42;;;3.60;99.90;;;;;;4929017;29;20580;-60
2023/01/27 02:41:52;;;;;;;4.70;2.30;;;3.80;99.90;;;;;;4928902;29;20396;-59
2023/01/27 02:44:18;;;;;;;4.80;1.98;;;3.90;99.90;;;;;;4928461;29;20126;-58
2023/01/27 02:46:44;;;;;;;3.33;2.00;;;3.90;99.90;;;;;;4929189;29;20476;-60
2023/01/27 02:49:10;;;;;;;4.18;2.20;;;4.00;99.90;;;;;;4928751;29;20689;-61
2023/01/27 02:51:35;;;;;;;6.30;2.38;;;3.70;99.90;;;;;;4910561;29;20059;-61
2023/01/27 02:54:01;;;;;;;3.95;2.30;;;3.80;99.90;;;;;;4911655;29;20577;-60
2023/01/27 02:56:27;;;;;;;3.03;2.22;;;4.00;99.90;;;;;;4928972;29;20122;-59
2023/01/27 02:58:53;;;;;;;3.75;2.03;;;3.90;99.90;;;;;;4928947;29;20091;-61
2023/01/27 03:01:18;;;;;;;5.07;2.40;;;3.90;99.90;;;;;;4927925;29;20414;-61
2023/01/27 03:03:45;;;;;;;4.07;2.25;;;3.90;99.90;;;;;;4928424;29;20496;-61
2023/01/27 03:06:14;;;;;;;4.15;2.15;;;3.60;99.90;;;;;;4937125;28;20047;-59
2023/01/27 03:08:41;;;;;;;3.55;2.33;;;3.60;99.90;;;;;;4946434;28;20078;-59
2023/01/27 03:11:07;;;;;;;4.70;2.70;;;3.50;99.90;;;;;;4947580;29;20126;-59
2023/01/27 03:13:33;;;;;;;4.25;2.58;;;3.80;99.90;;;;;;4947196;29;20607;-58
2023/01/27 03:18:48;;;;;;;4.65;2.40;;;3.60;99.90;;;;;;4947514;29;20062;-59
2023/01/27 03:21:15;;;;;;;6.05;2.40;;;3.70;99.90;;;;;;4947104;28;20106;-58
2023/01/27 03:23:41;;;;;;;4.53;2.55;;;3.80;99.90;;;;;;4946609;29;20051;-61
2023/01/27 03:26:09;;;;;;;4.88;2.50;;;3.80;99.90;;;;;;4947258;29;20097;-59
2023/01/27 03:28:35;;;;;;;4.15;2.15;;;3.60;99.90;;;;;;4947193;29;20089;-61
2023/01/27 03:31:18;;;;;;;4.00;2.20;;;3.80;99.90;;;;;;4947163;29;20039;-61
2023/01/27 03:33:46;;;;;;;3.97;2.50;;;3.30;99.90;;;;;;4946900;29;20054;-61
2023/01/27 03:47:10;;;;;;;5.57;2.22;;;3.40;99.90;;;;;;4946698;29;20043;-59
2023/01/27 03:49:35;;;;;;;4.72;2.20;;;3.70;99.90;;;;;;4946872;29;20058;-60
2023/01/27 03:52:01;;;;;;;4.85;2.75;;;3.40;99.90;;;;;;4945716;28;20054;-57
2023/01/27 03:54:27;;;;;;;5.40;2.30;;;3.70;99.90;;;;;;4946972;29;20484;-62
2023/01/27 03:56:52;;;;;;;4.45;2.17;;;3.70;99.90;;;;;;4946713;29;20090;-61
2023/01/27 03:59:18;;;;;;;4.40;2.80;;;3.40;99.90;;;;;;4946228;29;20125;-56
2023/01/27 04:01:44;;;;;;;4.90;2.42;;;3.80;99.90;;;;;;4946570;29;20164;-62
2023/01/27 04:06:55;;;;;;;5.22;2.72;;;3.70;99.90;;;;;;4945242;29;20056;-59
2023/01/27 04:09:32;;;;;;;4.18;2.47;;;3.30;99.90;;;;;;4946300;29;20051;-57
2023/01/27 04:12:00;;;;;;;5.20;2.88;;;3.30;99.90;;;;;;4946388;28;20051;-61
2023/01/27 04:14:37;;;;;;;5.20;2.78;;;3.70;99.90;;;;;;4946004;29;20089;-60
2023/01/27 04:17:05;;;;;;;5.25;2.90;;;3.70;99.90;;;;;;4928930;29;20477;-60
2023/01/27 04:19:32;;;;;;;8.48;2.85;;;3.30;99.90;;;;;;4945852;29;20451;-59
2023/01/27 04:21:59;;;;;;;4.47;2.38;;;3.60;99.90;;;;;;4928723;29;20118;-61
2023/01/27 04:24:26;;;;;;;4.38;2.38;;;3.70;99.90;;;;;;4928608;29;20050;-62
2023/01/27 04:26:57;;;;;;;6.20;2.40;;;3.70;99.90;;;;;;4945348;29;20078;-60
2023/01/27 04:29:26;;;;;;;6.13;2.60;;;3.40;99.90;;;;;;4946150;29;20058;-62
2023/01/27 04:31:52;;;;;;;9.13;2.80;;;3.50;99.90;;;;;;4946185;29;20047;-61
2023/01/27 04:34:18;;;;;;;8.45;2.40;;;3.20;99.90;;;;;;4928146;29;20541;-60
2023/01/27 04:36:44;;;;;;;4.07;2.22;;;3.30;99.90;;;;;;4945042;29;20420;-60
2023/01/27 04:39:10;;;;;;;6.95;2.42;;;3.80;99.90;;;;;;4945869;29;20035;-59
2023/01/27 04:41:36;;;;;;;5.65;2.70;;;3.60;99.90;;;;;;4946003;29;20043;-61
2023/01/27 04:44:03;;;;;;;5.68;2.88;;;3.80;99.90;;;;;;4945849;29;20109;-61
2023/01/27 04:46:29;;;;;;;6.75;3.10;;;3.20;99.90;;;;;;4946312;29;20039;-62
2023/01/27 04:48:55;;;;;;;6.75;2.97;;;3.60;99.90;;;;;;4945720;29;20073;-61
2023/01/27 04:51:20;;;;;;;4.57;3.00;;;3.50;99.90;;;;;;4944967;28;20051;-58
2023/01/27 04:53:46;;;;;;;7.38;3.17;;;3.50;99.90;;;;;;4946220;29;20524;-57
2023/01/27 04:56:30;;;;;;;5.45;3.00;;;3.50;99.90;;;;;;4945843;29;20079;-61
2023/01/27 04:59:04;;;;;;;4.18;3.08;;;3.20;99.90;;;;;;4945801;28;20051;-62
2023/01/27 05:01:30;;;;;;;7.72;3.42;;;3.10;99.90;;;;;;4945963;29;20408;-58
2023/01/27 05:03:56;;;;;;;4.57;2.90;;;3.80;99.90;;;;;;4945244;29;20039;-58
2023/01/27 05:06:23;;;;;;;5.95;3.20;;;3.40;99.90;;;;;;4945063;29;20208;-61
2023/01/27 05:08:49;;;;;;;5.35;3.30;;;3.90;99.90;;;;;;4946051;28;20432;-62
2023/01/27 05:11:16;;;;;;;5.57;3.38;;;3.10;99.90;;;;;;4945366;29;20083;-61
2023/01/27 05:13:41;;;;;;;5.35;3.60;;;3.10;99.90;;;;;;4945573;29;20408;-59
2023/01/27 05:16:26;;;;;;;5.32;3.40;;;3.30;99.90;;;;;;4945717;29;20043;-58
2023/01/27 05:18:52;;;;;;;6.70;3.47;;;3.30;99.90;;;;;;4945299;28;20043;-60
2023/01/27 05:21:21;;;;;;;4.50;2.78;;;3.20;99.90;;;;;;4944617;29;20082;-58
2023/01/27 05:23:47;;;;;;;6.25;3.20;;;3.80;99.90;;;;;;4945537;29;20046;-60
2023/01/27 05:26:21;;;;;;;8.50;3.00;;;3.20;99.90;;;;;;4945042;29;20035;-61
2023/01/27 05:28:48;;;;;;;3.53;2.42;;;3.30;99.90;;;;;;4945459;29;20261;-61
2023/01/27 05:31:19;;;;;;;5.53;2.88;;;3.40;99.90;;;;;;4945396;29;20428;-58
2023/01/27 05:33:47;;;;;;;5.13;2.75;;;3.30;99.90;;;;;;4945190;29;20058;-61
2023/01/27 05:36:14;;;;;;;4.60;2.50;;;3.40;99.90;;;;;;4944711;29;20053;-58
2023/01/27 05:38:40;;;;;;;5.32;2.70;;;3.70;99.90;;;;;;4945645;29;20043;-57
2023/01/27 05:41:07;;;;;;;4.22;2.60;;;2.80;99.90;;;;;;4945343;29;20039;-58
2023/01/27 05:43:35;;;;;;;4.05;2.50;;;3.20;99.90;;;;;;4945598;28;20102;-61
2023/01/27 05:46:10;;;;;;;5.32;2.75;;;3.80;99.90;;;;;;4945275;29;20051;-59
2023/01/27 05:48:38;;;;;;;6.00;2.80;;;3.30;99.90;;;;;;4945836;29;20536;-61
2023/01/27 05:51:04;;;;;;;5.15;2.90;;;2.80;99.90;;;;;;4927258;29;20054;-60
2023/01/27 05:53:30;;;;;;;5.63;3.58;;;3.30;99.90;;;;;;4945503;29;20469;-61
2023/01/27 05:55:56;;;;;;;6.45;3.10;;;2.90;99.90;;;;;;4944772;28;20436;-58
2023/01/27 05:58:22;;;;;;;6.03;3.08;;;2.70;99.90;;;;;;4945361;29;20054;-61
2023/01/27 06:00:48;;;;;;;4.50;2.97;;;3.20;99.90;;;;;;4945409;29;20058;-58
2023/01/27 06:03:14;;;;;;;5.15;3.05;;;3.40;99.90;;;;;;4944623;29;20058;-60
2023/01/27 06:05:49;;;;;;;5.03;2.67;;;3.10;99.90;;;;;;4945218;28;20386;-60
2023/01/27 06:08:15;;;;;;;5.75;2.65;;;2.80;99.90;;;;;;4944774;28;20460;-61
2023/01/27 06:10:41;;;;;;;7.30;3.03;;;3.50;99.90;;;;;;4947589;29;20082;-61
2023/01/27 06:13:06;;;;;;;4.45;2.85;;;3.00;99.90;;;;;;4949229;29;20054;-60
2023/01/27 06:15:32;;;;;;;5.15;2.65;;;2.80;99.90;;;;;;4948519;29;20059;-61
2023/01/27 06:17:57;;;;;;;5.53;2.40;;;3.00;99.90;;;;;;4948195;29;20217;-61
2023/01/27 06:20:24;;;;;;;6.53;2.38;;;2.80;99.90;;;;;;4948419;29;20090;-58
2023/01/27 06:22:50;;;;;;;8.02;2.60;;;3.60;99.90;;;;;;4947588;28;20126;-59
2023/01/27 06:25:15;;;;;;;5.93;2.55;;;2.90;99.90;;;;;;4948707;29;20146;-60
2023/01/27 06:27:41;;;;;;;7.20;2.75;;;3.30;99.90;;;;;;4947847;29;20035;-62
2023/01/27 06:30:07;;;;;;;6.13;2.92;;;2.70;99.90;;;;;;4948607;29;20039;-57
2023/01/27 06:32:35;;;;;;;5.05;3.20;;;2.90;99.90;;;;;;4948183;29;20047;-58
2023/01/27 06:35:01;;;;;;;5.65;2.80;;;3.30;99.90;;;;;;4947910;29;20043;-61
2023/01/27 06:37:30;;;;;;;5.00;2.72;;;3.40;99.90;;;;;;4947391;28;20087;-61
2023/01/27 06:39:55;;;;;;;7.78;2.60;;;2.80;99.90;;;;;;4931142;29;20397;-60
2023/01/27 06:42:21;;;;;;;9.23;2.72;;;3.00;99.90;;;;;;4947205;29;20047;-62
2023/01/27 06:44:47;;;;;;;5.75;2.60;;;3.10;99.90;;;;;;4965334;28;20046;-59
2023/01/27 06:47:12;;;;;;;5.80;2.70;;;3.40;99.90;;;;;;4967196;28;20046;-59
2023/01/27 06:49:38;;;;;;;4.45;2.63;;;2.70;99.90;;;;;;4966915;28;20070;-61
2023/01/27 06:52:04;;;;;;;5.53;2.25;;;2.90;99.90;;;;;;4966298;28;20131;-61
2023/01/27 06:54:29;;;;;;;7.22;2.95;;;3.40;99.90;;;;;;4967079;28;20448;-61
2023/01/27 06:56:55;;;;;;;8.40;3.03;;;3.10;99.90;;;;;;4967012;28;20503;-60
2023/01/27 06:59:20;;;;;;;5.68;2.60;;;3.40;99.90;;;;;;4966779;28;20492;-61
2023/01/27 07:01:46;;;;;;;6.43;2.78;;;2.80;99.90;;;;;;4966703;28;20082;-59
2023/01/27 07:04:12;;;;;;;7.05;2.55;;;2.70;99.90;;;;;;4967161;28;20034;-58
2023/01/27 07:06:37;;;;;;;7.22;3.22;;;2.90;99.90;;;;;;4960922;28;20069;-59
2023/01/27 07:09:03;;;;;;;5.70;2.78;;;2.80;99.90;;;;;;4986326;28;20057;-62
2023/01/27 07:11:29;;;;;;;8.68;2.95;;;3.30;99.90;;;;;;4986240;28;20133;-59
2023/01/27 07:13:54;;;;;;;6.45;2.95;;;3.00;99.90;;;;;;4986105;28;20043;-61
2023/01/27 07:16:20;;;;;;;6.82;3.03;;;2.70;99.90;;;;;;4985514;28;20448;-58
2023/01/27 07:18:45;;;;;;;8.65;3.00;;;3.40;99.90;;;;;;4985986;28;20097;-58
2023/01/27 07:21:11;;;;;;;6.43;3.03;;;3.40;99.90;;;;;;4985086;28;20034;-58
2023/01/27 07:23:37;;;;;;;8.75;3.20;;;2.80;99.90;;;;;;4985415;28;20050;-60
2023/01/27 07:26:03;;;;;;;6.55;3.10;;;3.30;99.90;;;;;;4986199;28;20722;-57
2023/01/27 07:28:29;;;;;;;7.18;3.35;;;3.40;99.90;;;;;;4986068;28;20046;-61
2023/01/27 07:30:54;;;;;;;6.85;3.42;;;3.90;99.90;;;;;;4985581;28;20061;-54
2023/01/27 07:33:20;;;;;;;6.07;3.00;;;2.80;99.90;;;;;;4985659;28;20050;-61
2023/01/27 07:35:48;;;;;;;6.55;3.47;;;3.50;99.90;;;;;;4985142;28;20073;-60
2023/01/27 07:38:14;;;;;;;6.50;3.38;;;2.50;99.90;;;;;;4985938;28;20057;-59
2023/01/27 07:40:40;;;;;;;9.80;3.50;;;3.10;99.90;;;;;;4985569;28;20141;-61
2023/01/27 07:43:06;;;;;;;8.80;3.60;;;3.50;99.90;;;;;;4985570;28;20129;-61
2023/01/27 07:45:31;;;;;;;10.98;3.35;;;3.20;99.90;;;;;;4985469;28;20042;-57
2023/01/27 07:48:06;;;;;;;10.15;3.60;;;3.20;99.90;;;;;;4967725;28;20053;-59
2023/01/27 07:50:32;;;;;;;8.13;3.67;;;2.50;99.90;;;;;;4985214;28;20053;-62
2023/01/27 07:53:00;;;;;;;8.20;3.88;;;3.30;99.90;;;;;;4984340;28;20631;-61
2023/01/27 07:55:25;;;;;;;7.78;3.90;;;2.50;99.90;;;;;;4984979;28;20074;-59
2023/01/27 07:57:54;;;;;;;10.43;3.80;;;2.60;99.90;;;;;;4985551;28;20066;-61
2023/01/27 08:00:21;;;;;;;8.05;3.83;;;2.90;99.90;;;;;;4985371;28;20430;-60
2023/01/27 08:02:53;;;;;;;7.95;3.70;;;2.60;99.90;;;;;;4985103;28;20042;-61
2023/01/27 08:05:20;;;;;;;7.53;4.13;;;2.70;99.90;;;;;;4969423;28;20057;-62
2023/01/27 08:07:45;;;;;;;7.97;3.60;;;3.50;99.90;;;;;;4986605;28;20050;-58
2023/01/27 08:10:11;;;;;;;13.15;4.65;;;2.60;99.90;;;;;;4986833;28;20045;-62
2023/01/27 08:12:37;;;;;;;10.90;4.53;;;3.00;99.90;;;;;;4987112;28;20507;-62
2023/01/27 08:15:04;;;;;;;11.18;4.22;;;3.20;99.90;;;;;;4986764;28;20250;-57
2023/01/27 08:17:30;;;;;;;6.45;4.20;;;2.50;99.90;;;;;;4986335;28;20058;-61
2023/01/27 08:19:56;;;;;;;8.25;4.63;;;2.60;99.90;;;;;;4987073;28;20475;-61
2023/01/27 08:22:21;;;;;;;10.30;4.57;;;2.80;99.90;;;;;;4986368;28;20047;-61
2023/01/27 08:24:48;;;;;;;7.07;4.45;;;3.60;99.90;;;;;;4986335;28;20567;-61
2023/01/27 08:27:14;;;;;;;7.00;4.18;;;4.00;99.90;;;;;;4986459;28;20034;-61
2023/01/27 08:29:39;;;;;;;9.60;5.03;;;3.50;99.90;;;;;;4969185;28;20108;-59
2023/01/27 08:32:05;;;;;;;7.25;4.25;;;3.70;99.90;;;;;;4985912;28;20057;-60
2023/01/27 08:34:32;;;;;;;18.02;5.25;;;3.40;99.90;;;;;;4986579;28;20050;-60
2023/01/27 08:36:57;;;;;;;9.50;4.88;;;3.40;99.90;;;;;;4986305;28;20490;-61
2023/01/27 08:39:23;;;;;;;11.15;4.72;;;3.40;99.90;;;;;;4986533;28;20046;-61
2023/01/27 08:41:49;;;;;;;7.50;4.22;;;3.50;99.90;;;;;;4986184;28;20038;-61
2023/01/27 08:44:15;;;;;;;7.38;4.30;;;4.00;99.90;;;;;;4986918;28;20034;-61
2023/01/27 08:46:40;;;;;;;8.70;4.18;;;3.60;99.90;;;;;;4986028;28;20069;-61
2023/01/27 08:49:06;;;;;;;10.30;4.85;;;3.70;99.90;;;;;;4987066;28;20089;-61
2023/01/27 08:51:32;;;;;;;8.00;4.18;;;3.10;99.90;;;;;;4985562;28;20158;-61
2023/01/27 08:53:57;;;;;;;6.68;3.95;;;3.70;99.90;;;;;;4986833;28;20786;-61
2023/01/27 08:56:23;;;;;;;7.18;4.10;;;3.00;99.90;;;;;;4979074;28;20109;-61
2023/01/27 08:58:51;;;;;;;9.55;4.13;;;2.90;99.90;;;;;;4967100;28;20559;-55
2023/01/27 09:01:18;;;;;;;7.65;4.18;;;3.30;99.90;;;;;;4967159;28;20566;-61
2023/01/27 09:03:44;;;;;;;6.03;3.75;;;3.10;99.90;;;;;;4980388;28;20050;-61
2023/01/27 09:06:11;;;;;;;7.03;3.90;;;3.80;99.90;;;;;;4984610;28;20595;-58
2023/01/27 09:08:38;;;;;;;10.20;4.10;;;3.00;99.90;;;;;;4986161;28;20090;-60
2023/01/27 09:11:08;;;;;;;5.20;3.63;;;3.10;99.90;;;;;;4986206;28;20050;-62
2023/01/27 09:13:34;;;;;;;6.57;3.65;;;3.60;99.90;;;;;;4986105;28;20058;-61
2023/01/27 09:16:01;;;;;;;8.18;3.80;;;3.40;99.90;;;;;;4986130;28;20109;-61
2023/01/27 09:18:27;;;;;;;7.70;3.50;;;3.90;99.90;;;;;;4986660;28;20450;-60
2023/01/27 09:20:53;;;;;;;7.30;3.72;;;4.20;99.90;;;;;;4968990;28;20085;-61
2023/01/27 09:23:18;;;;;;;6.70;3.65;;;4.00;99.90;;;;;;4986285;28;20471;-61
2023/01/27 09:25:44;;;;;;;4.93;3.40;;;3.20;99.90;;;;;;4986198;28;20125;-61
2023/01/27 09:28:15;;;;;;;6.43;3.67;;;3.50;99.90;;;;;;4985490;28;20050;-61
2023/01/27 09:30:43;;;;;;;5.25;3.33;;;3.90;99.90;;;;;;4983800;28;20466;-60
2023/01/27 09:33:09;;;;;;;9.40;3.78;;;3.80;99.90;;;;;;4984399;28;20050;-60
2023/01/27 09:35:43;;;;;;;6.47;3.53;;;3.50;99.90;;;;;;4983804;28;20088;-60
2023/01/27 09:38:12;;;;;;;6.03;3.65;;;3.90;99.90;;;;;;4983617;28;20046;-61
2023/01/27 09:40:49;;;;;;;7.65;4.03;;;3.20;99.90;;;;;;4984290;28;20051;-61
2023/01/27 09:43:36;;;;;;;4.95;3.45;;;3.10;99.90;;;;;;4984528;28;20046;-61
2023/01/27 09:46:30;;;;;;;7.25;3.60;;;3.40;99.90;;;;;;4970499;28;20406;-60
2023/01/27 09:49:19;;;;;;;5.40;3.10;;;3.50;99.90;;;;;;4987772;28;20039;-62
2023/01/27 09:51:47;;;;;;;6.03;3.15;;;3.60;99.90;;;;;;4986627;28;20065;-62
2023/01/27 09:54:24;;;;;;;4.32;3.10;;;3.80;99.90;;;;;;4988026;28;20046;-62
2023/01/27 09:57:25;;;;;;;4.85;2.90;;;3.40;99.90;;;;;;4988076;28;20104;-61
2023/01/27 10:00:17;;;;;;;3.38;2.60;;;4.00;99.90;;;;;;4987952;28;20479;-59
2023/01/27 10:02:58;;;;;;;4.30;2.65;;;4.00;99.90;;;;;;4987362;28;20506;-61
2023/01/27 10:05:37;;;;;;;5.30;3.65;;;4.20;99.90;;;;;;4986755;28;20046;-59
2023/01/27 10:08:18;;;;;;;5.03;3.75;;;3.50;99.90;;;;;;4987558;28;20137;-60
2023/01/27 10:10:45;;;;;;;4.35;3.92;;;3.90;99.90;;;;;;4987197;28;20046;-57
2023/01/27 10:13:31;;;;;;;3.85;3.45;;;4.00;99.90;;;;;;4987520;28;20050;-62
2023/01/27 10:16:25;;;;;;;5.72;4.00;;;4.00;99.90;;;;;;4987339;28;20046;-62
2023/01/27 10:19:19;;;;;;;3.88;3.38;;;3.50;99.90;;;;;;4987756;28;20454;-59
2023/01/27 10:22:09;;;;;;;3.60;3.17;;;3.50;99.90;;;;;;4986659;28;20058;-61
2023/01/27 10:25:05;;;;;;;4.45;3.85;;;3.50;99.90;;;;;;4984089;28;20043;-59
2023/01/27 10:27:39;;;;;;;4.32;3.92;;;3.70;99.90;;;;;;4964139;28;20054;-60
2023/01/27 10:30:27;;;;;;;4.28;3.55;;;3.50;99.90;;;;;;4967416;28;20307;-60
2023/01/27 10:33:01;;;;;;;4.13;3.13;;;3.90;99.90;;;;;;4985194;28;20084;-58
2023/01/27 10:35:55;;;;;;;4.05;3.50;;;4.00;99.90;;;;;;4985934;28;20073;-60
2023/01/27 10:38:39;;;;;;;3.85;3.10;;;3.80;99.90;;;;;;4986983;28;20046;-61
2023/01/27 10:41:22;;;;;;;4.95;3.10;;;3.90;99.90;;;;;;4988456;28;20126;-61
2023/01/27 10:43:50;;;;;;;3.33;2.90;;;3.90;99.90;;;;;;4980044;28;20117;-61
2023/01/27 10:46:57;;;;;;;5.18;2.85;;;3.60;99.90;;;;;;4967893;28;20050;-59
2023/01/27 10:49:39;;;;;;;3.75;3.13;;;3.90;99.90;;;;;;4987024;28;20081;-61
2023/01/27 10:52:09;;;;;;;3.78;2.65;;;3.40;99.90;;;;;;4969684;28;20050;-59
2023/01/27 10:54:48;;;;;;;3.42;2.83;;;3.80;99.90;;;;;;4986378;28;20042;-61
2023/01/27 10:57:20;;;;;;;3.38;2.40;;;3.40;99.90;;;;;;4969034;28;20086;-61
2023/01/27 10:59:49;;;;;;;3.38;2.67;;;3.90;99.90;;;;;;4977102;28;20046;-60
2023/01/27 11:02:28;;;;;;;4.18;3.20;;;3.70;99.90;;;;;;4983674;28;20082;-61
2023/01/27 11:05:00;;;;;;;4.47;3.00;;;3.60;99.90;;;;;;4987737;28;20046;-61
2023/01/27 11:07:28;;;;;;;3.85;2.97;;;3.80;99.90;;;;;;4983230;28;20470;-58
2023/01/27 11:10:01;;;;;;;4.13;3.20;;;3.70;99.90;;;;;;4986097;28;20078;-61
2023/01/27 11:12:36;;;;;;;4.10;3.20;;;4.10;99.90;;;;;;4985106;28;20505;-61
2023/01/27 11:15:13;;;;;;;4.13;2.80;;;3.60;99.90;;;;;;4986076;28;20059;-60
2023/01/27 11:17:47;;;;;;;4.05;2.55;;;3.90;99.90;;;;;;4972222;28;20135;-60
2023/01/27 11:20:37;;;;;;;3.17;2.13;;;3.90;99.90;;;;;;4971918;28;20053;-61
2023/01/27 11:23:08;;;;;;;3.00;2.40;;;3.90;99.90;;;;;;4984668;28;20050;-61
2023/01/27 11:25:56;;;;;;;3.10;2.55;;;3.70;99.90;;;;;;4985374;28;20050;-58
2023/01/27 11:28:44;;;;;;;3.53;2.80;;;3.50;99.90;;;;;;4985585;28;20115;-61
2023/01/27 11:31:37;;;;;;;3.72;2.78;;;3.70;99.90;;;;;;4968709;28;20054;-61
2023/01/27 11:34:30;;;;;;;3.70;2.58;;;3.70;99.90;;;;;;4986129;28;20039;-60
2023/01/27 11:36:55;;;;;;;3.30;2.42;;;3.70;99.90;;;;;;4985200;28;20125;-60
2023/01/27 11:39:21;;;;;;;2.90;2.30;;;4.20;99.90;;;;;;4985804;28;20562;-61
2023/01/27 11:41:54;;;;;;;2.80;2.28;;;3.50;99.90;;;;;;4985512;28;20185;-61
2023/01/27 11:44:24;;;;;;;3.25;1.77;;;3.70;99.90;;;;;;4985160;28;20043;-61
2023/01/27 11:46:52;;;;;;;3.22;1.70;;;3.60;99.90;;;;;;4985779;28;20092;-61
2023/01/27 11:49:34;;;;;;;2.10;1.45;;;4.00;99.90;;;;;;4985835;28;20309;-60
2023/01/27 11:52:09;;;;;;;1.83;1.10;;;4.00;99.90;;;;;;4985064;28;20202;-59
2023/01/27 11:54:41;;;;;;;2.28;0.90;;;3.70;99.90;;;;;;4985706;28;20414;-58
2023/01/27 11:57:17;;;;;;;1.55;0.90;;;4.00;99.90;;;;;;4967733;28;20056;-60
2023/01/27 11:59:46;;;;;;;2.63;1.30;;;4.00;99.90;;;;;;4985602;28;20515;-61
2023/01/27 12:02:39;;;;;;;2.47;1.88;;;3.80;99.90;;;;;;4984753;28;20214;-61
2023/01/27 12:05:29;;;;;;;3.53;2.10;;;3.80;99.90;;;;;;4976143;28;20054;-61
2023/01/27 12:07:58;;;;;;;4.40;2.30;;;3.90;99.90;;;;;;4987335;28;20125;-61
2023/01/27 12:10:33;;;;;;;3.65;2.10;;;3.70;99.90;;;;;;4986810;28;20054;-61
2023/01/27 12:13:24;;;;;;;2.95;1.80;;;3.90;99.90;;;;;;4986786;28;20092;-59
2023/01/27 12:15:58;;;;;;;2.05;1.60;;;4.10;99.90;;;;;;4970699;28;20047;-61
2023/01/27 12:18:24;;;;;;;2.40;1.83;;;4.10;99.90;;;;;;4967620;28;20082;-60
2023/01/27 12:21:03;;;;;;;2.50;1.65;;;3.80;99.90;;;;;;4966559;28;20082;-61
2023/01/27 12:23:35;;;;;;;2.47;1.80;;;3.90;99.90;;;;;;4966965;28;20051;-57
2023/01/27 12:26:11;;;;;;;3.58;2.60;;;4.50;99.90;;;;;;4967699;28;20071;-59
2023/01/27 12:28:50;;;;;;;5.10;3.00;;;4.10;99.90;;;;;;4967316;28;20042;-60
2023/01/27 12:31:23;;;;;;;3.75;3.00;;;4.00;99.90;;;;;;4967235;28;20119;-60
2023/01/27 12:34:16;;;;;;;4.28;3.42;;;4.10;99.90;;;;;;4953825;28;20058;-56
2023/01/27 12:36:43;;;;;;;4.45;4.03;;;4.00;99.90;;;;;;4966806;28;20424;-59
2023/01/27 12:39:34;;;;;;;4.95;4.07;;;3.60;99.90;;;;;;4967561;28;20078;-61
2023/01/27 12:41:59;;;;;;;5.15;3.80;;;3.70;99.90;;;;;;4949662;28;20055;-58
2023/01/27 12:44:27;;;;;;;5.00;3.88;;;3.50;99.90;;;;;;4967626;28;20474;-60
2023/01/27 12:47:18;;;;;;;4.50;4.03;;;4.30;99.90;;;;;;4966919;28;20593;-61
2023/01/27 12:49:43;;;;;;;4.07;3.50;;;3.80;99.90;;;;;;4967311;28;20047;-61
2023/01/27 12:52:18;;;;;;;4.30;3.88;;;3.70;99.90;;;;;;4948399;28;20053;-59
2023/01/27 12:54:45;;;;;;;5.05;4.00;;;3.30;99.90;;;;;;4966810;28;20058;-60
2023/01/27 12:57:17;;;;;;;5.07;4.50;;;3.50;99.90;;;;;;4949240;28;20090;-59
2023/01/27 12:59:56;;;;;;;4.15;3.75;;;3.30;99.90;;;;;;4965458;28;20469;-60
2023/01/27 13:02:29;;;;;;;4.53;3.90;;;3.80;99.90;;;;;;4965010;28;20093;-61
2023/01/27 13:04:59;;;;;;;4.80;4.22;;;3.70;99.90;;;;;;4964732;28;20078;-61
2023/01/27 13:07:47;;;;;;;5.43;4.10;;;3.90;99.90;;;;;;4965585;28;20055;-60
2023/01/27 13:10:24;;;;;;;5.00;3.53;;;3.50;99.90;;;;;;4964427;28;20054;-60
2023/01/27 13:12:52;;;;;;;4.78;4.20;;;3.60;99.90;;;;;;4965001;28;20062;-58
2023/01/27 13:15:23;;;;;;;4.40;3.72;;;3.40;99.90;;;;;;4966081;28;20673;-60
2023/01/27 13:17:54;;;;;;;4.45;3.42;;;4.10;99.90;;;;;;4964090;28;20047;-58
2023/01/27 13:20:42;;;;;;;4.10;3.70;;;3.60;99.90;;;;;;4966630;28;20086;-60
2023/01/27 13:23:21;;;;;;;4.45;3.60;;;3.60;99.90;;;;;;4967725;28;20117;-60
2023/01/27 13:25:58;;;;;;;5.65;4.40;;;3.60;99.90;;;;;;4966388;28;20738;-60
2023/01/27 13:28:30;;;;;;;6.22;4.30;;;3.40;99.90;;;;;;4967556;28;20050;-59
2023/01/27 13:31:02;;;;;;;4.32;3.50;;;3.80;99.90;;;;;;4967765;28;20050;-59
2023/01/27 13:33:48;;;;;;;4.25;3.80;;;3.40;99.90;;;;;;4967058;28;20053;-60
2023/01/27 13:36:48;;;;;;;5.65;4.00;;;3.40;99.90;;;;;;4966672;28;20058;-61
2023/01/27 13:39:52;;;;;;;4.80;4.10;;;3.60;99.90;;;;;;4959567;28;20066;-60